^^
Grace C. Lehan Memorial Weather Station Historical Data
Daily Summary for August 18, 2021 Units:  Metric    English   Both
Daily Weekly Monthly Yearly
  High: Low: Average:
Temperature: 28.8 °C 10.9 °C 20.7 °C
Dew Point: 13.3 °C 8.6 °C 10.2 °C
Humidity: 87% 28.7% 56%
Wind Speed: 14.5km/h 0km/h 2.6km/h
Wind Gust: 33.8km/h - -
Wind- - WNW
Pressure: 1024.9 hPa 1019.9 hPa -
Precipitation: 0 mm    
 
 
Tabular Data for August 18, 2021
Time Temperature Dew Point Pressure Wind Wind Speed Wind Gust Humidity Rainfall Rate (Hourly) solar
00:00 14.1 °C 9.9 °C 1023.9 hPa Calm     76% 0 mm 0 W/m2
00:09 14.1 °C 10 °C 1024.3 hPa Calm     76.4% 0 mm 0 W/m2
00:14 14.1 °C 9.9 °C 1024.3 hPa Calm     76% 0 mm 0 W/m2
00:19 14 °C 10 °C 1024.3 hPa Calm     76.7% 0 mm 0 W/m2
00:24 13.9 °C 9.9 °C 1023.9 hPa Calm     77% 0 mm 0 W/m2
00:29 13.8 °C 9.9 °C 1023.9 hPa Calm     77% 0 mm 0 W/m2
00:34 13.8 °C 10 °C 1023.9 hPa Calm     78% 0 mm 0 W/m2
00:39 13.7 °C 9.9 °C 1023.9 hPa Calm     77.9% 0 mm 0 W/m2
00:44 13.6 °C 9.7 °C 1023.9 hPa Calm     77.6% 0 mm 0 W/m2
00:49 13.6 °C 9.8 °C 1023.9 hPa Calm     78% 0 mm 0 W/m2
00:54 13.6 °C 9.8 °C 1023.9 hPa Calm     78% 0 mm 0 W/m2
00:59 13.6 °C 9.8 °C 1023.9 hPa Calm     78% 0 mm 0 W/m2
01:04 13.6 °C 9.8 °C 1023.9 hPa Calm     77.8% 0 mm 0 W/m2
01:09 13.6 °C 9.6 °C 1023.9 hPa Calm     77% 0 mm 0 W/m2
01:14 13.6 °C 9.6 °C 1023.9 hPa Calm     77% 0 mm 0 W/m2
01:19 13.6 °C 9.6 °C 1023.9 hPa Calm     77% 0 mm 0 W/m2
01:24 13.5 °C 9.6 °C 1023.9 hPa Calm     77% 0 mm 0 W/m2
01:29 13.4 °C 9.5 °C 1023.9 hPa Calm     77% 0 mm 0 W/m2
01:34 13.4 °C 9.5 °C 1023.9 hPa Calm     77% 0 mm 0 W/m2
01:39 13.4 °C 9.5 °C 1023.9 hPa Calm     77% 0 mm 0 W/m2
01:44 13.4 °C 9.5 °C 1023.6 hPa Calm     77.1% 0 mm 0 W/m2
01:49 13.3 °C 9.6 °C 1023.6 hPa Calm     78% 0 mm 0 W/m2
01:54 13.3 °C 9.6 °C 1023.6 hPa Calm     78% 0 mm 0 W/m2
01:59 13.2 °C 9.5 °C 1023.6 hPa Calm     78% 0 mm 0 W/m2
02:04 13.2 °C 9.4 °C 1023.6 hPa Calm     78% 0 mm 0 W/m2
02:09 13.1 °C 9.4 °C 1023.6 hPa Calm     78% 0 mm 0 W/m2
02:14 13 °C 9.4 °C 1023.6 hPa Calm     78.5% 0 mm 0 W/m2
02:19 12.9 °C 9.4 °C 1023.6 hPa Calm     79% 0 mm 0 W/m2
02:24 12.8 °C 9.3 °C 1023.6 hPa Calm     79% 0 mm 0 W/m2
02:29 12.7 °C 9.2 °C 1023.6 hPa Calm     79% 0 mm 0 W/m2
02:34 12.6 °C 9.1 °C 1023.6 hPa Calm     79% 0 mm 0 W/m2
02:39 12.6 °C 9 °C 1023.6 hPa Calm     79% 0 mm 0 W/m2
02:44 12.5 °C 8.9 °C 1023.6 hPa Calm     79.1% 0 mm 0 W/m2
02:49 12.4 °C 9.1 °C 1023.6 hPa Calm     80% 0 mm 0 W/m2
02:54 12.3 °C 9.1 °C 1023.2 hPa Calm     80.3% 0 mm 0 W/m2
02:59 12.3 °C 9.1 °C 1023.2 hPa Calm     80.7% 0 mm 0 W/m2
03:04 12.2 °C 8.9 °C 1023.2 hPa Calm     80.3% 0 mm 0 W/m2
03:09 12.2 °C 9 °C 1023.2 hPa Calm     81% 0 mm 0 W/m2
03:14 12.1 °C 8.9 °C 1023.2 hPa Calm     81% 0 mm 0 W/m2
03:19 12.1 °C 9 °C 1023.2 hPa Calm     81.6% 0 mm 0 W/m2
03:24 12.1 °C 9.1 °C 1023.2 hPa Calm     82% 0 mm 0 W/m2
03:29 12 °C 9 °C 1023.2 hPa Calm     81.8% 0 mm 0 W/m2
03:34 11.9 °C 8.8 °C 1023.2 hPa Calm     81% 0 mm 0 W/m2
03:39 11.9 °C 8.8 °C 1023.2 hPa Calm     81% 0 mm 0 W/m2
03:44 11.9 °C 8.9 °C 1023.2 hPa Calm     81.7% 0 mm 0 W/m2
03:49 11.9 °C 8.9 °C 1023.2 hPa Calm     82% 0 mm 0 W/m2
03:54 11.8 °C 8.9 °C 1023.2 hPa Calm     82% 0 mm 0 W/m2
03:59 11.8 °C 8.8 °C 1023.2 hPa Calm     82% 0 mm 0 W/m2
04:00 11.8 °C 8.8 °C 1023.2 hPa Calm     82% 0 mm 0 W/m2
04:09 11.6 °C 8.8 °C 1023.2 hPa Calm     83% 0 mm 0 W/m2
04:14 11.5 °C 8.8 °C 1023.2 hPa Calm     83.7% 0 mm 0 W/m2
04:19 11.3 °C 8.7 °C 1023.2 hPa Calm     84% 0 mm 0 W/m2
04:24 11.2 °C 8.8 °C 1023.2 hPa Calm     84.7% 0 mm 0 W/m2
04:29 11.2 °C 8.8 °C 1023.6 hPa Calm     85% 0 mm 0 W/m2
04:34 11.1 °C 8.9 °C 1023.6 hPa Calm     85.9% 0 mm 0 W/m2
04:39 11.1 °C 8.8 °C 1023.6 hPa Calm     86% 0 mm 0 W/m2
04:44 11 °C 8.8 °C 1023.6 hPa Calm     86% 0 mm 0 W/m2
04:49 11 °C 8.8 °C 1023.6 hPa Calm     86.2% 0 mm 0 W/m2
04:54 10.9 °C 8.8 °C 1023.6 hPa Calm     86.7% 0 mm 0 W/m2
04:59 10.9 °C 8.9 °C 1023.6 hPa Calm     87% 0 mm 0 W/m2
05:04 11 °C 8.9 °C 1023.6 hPa Calm     87% 0 mm 0 W/m2
05:09 11.1 °C 8.9 °C 1023.6 hPa Calm     87% 0 mm 0 W/m2
05:14 11.2 °C 9.1 °C 1023.6 hPa Calm     87% 0 mm 0 W/m2
05:19 11.2 °C 9.1 °C 1023.6 hPa Calm     86.8% 0 mm 0 W/m2
05:24 11.3 °C 9.1 °C 1023.6 hPa Calm     86% 0 mm 0 W/m2
05:29 11.4 °C 9.2 °C 1023.6 hPa Calm     86% 0 mm 0 W/m2
05:34 11.4 °C 9.2 °C 1023.6 hPa Calm     86% 0 mm 0 W/m2
05:39 11.4 °C 9.2 °C 1023.6 hPa Calm     86% 0 mm 0 W/m2
05:44 11.4 °C 9.2 °C 1023.6 hPa Calm     85.9% 0 mm 7 W/m2
05:49 11.4 °C 9.1 °C 1023.6 hPa Calm     85.4% 0 mm 9 W/m2
05:54 11.3 °C 9.1 °C 1023.9 hPa Calm     86% 0 mm 12 W/m2
05:59 11.3 °C 9.1 °C 1023.9 hPa Calm     86% 0 mm 19 W/m2
06:04 11.3 °C 9.1 °C 1023.9 hPa Calm     86% 0 mm 19 W/m2
06:09 11.4 °C 9.1 °C 1023.9 hPa Calm     85.3% 0 mm 19 W/m2
06:14 11.6 °C 9.1 °C 1024.3 hPa Calm     85% 0 mm 18 W/m2
06:19 11.6 °C 9.2 °C 1024.3 hPa Calm     85% 0 mm 26 W/m2
06:24 11.7 °C 9.2 °C 1024.3 hPa Calm     85% 0 mm 28 W/m2
06:29 11.7 °C 9.3 °C 1024.3 hPa Calm     85% 0 mm 33 W/m2
06:34 11.8 °C 9.3 °C 1024.3 hPa Calm     85% 0 mm 72 W/m2
06:39 11.9 °C 9.6 °C 1024.3 hPa Calm     85.5% 0 mm 84 W/m2
06:44 12.2 °C 9.9 °C 1024.3 hPa Calm     85.5% 0 mm 91 W/m2
06:49 12.7 °C 10.2 °C 1024.3 hPa Calm     85% 0 mm 130 W/m2
06:54 13.2 °C 10.4 °C 1024.3 hPa Calm     83.4% 0 mm 202 W/m2
06:59 13.7 °C 10.6 °C 1024.6 hPa Calm     81.1% 0 mm 199 W/m2
07:04 14.2 °C 10.7 °C 1024.6 hPa Calm     79.1% 0 mm 167 W/m2
07:09 14.8 °C 11 °C 1024.6 hPa Calm     77.6% 0 mm 216 W/m2
07:14 15.4 °C 11.1 °C 1024.6 hPa Calm     75.7% 0 mm 269 W/m2
07:19 15.9 °C 11.3 °C 1024.6 hPa Calm     74% 0 mm 285 W/m2
07:24 16.3 °C 11.6 °C 1024.9 hPa Calm     73.4% 0 mm 302 W/m2
07:29 16.8 °C 11.6 °C 1024.9 hPa Calm     71.1% 0 mm 323 W/m2
07:34 17.2 °C 11.6 °C 1024.6 hPa Calm     69.5% 0 mm 345 W/m2
07:39 17.7 °C 11.9 °C 1024.6 hPa Calm     68.9% 0 mm 357 W/m2
07:44 18.2 °C 12.2 °C 1024.6 hPa Calm     68% 0 mm 378 W/m2
07:49 18.7 °C 12.6 °C 1024.6 hPa Calm     67.5% 0 mm 410 W/m2
07:54 19.2 °C 12.7 °C 1024.6 hPa Calm     66.2% 0 mm 438 W/m2
07:59 19.7 °C 12.7 °C 1024.6 hPa Calm     64% 0 mm 439 W/m2
08:00 19.9 °C 12.9 °C 1024.6 hPa Calm     64% 0 mm 436 W/m2
08:09 20.4 °C 12.7 °C 1024.6 hPa Calm     61.2% 0 mm 466 W/m2
08:14 20.7 °C 12.9 °C 1024.6 hPa Calm     61% 0 mm 490 W/m2
08:19 20.9 °C 12.4 °C 1024.6 hPa Calm     58.3% 0 mm 534 W/m2
08:24 21 °C 11.9 °C 1024.6 hPa Calm     55.9% 0 mm 534 W/m2
08:29 21.1 °C 12.1 °C 1024.6 hPa Calm     56.3% 0 mm 629 W/m2
08:34 21.2 °C 12.6 °C 1024.9 hPa Calm     57.9% 0 mm 642 W/m2
08:39 21.5 °C 12.8 °C 1024.9 hPa Calm     57.8% 0 mm 668 W/m2
08:44 21.9 °C 13 °C 1024.9 hPa Calm     56.8% 0 mm 687 W/m2
08:49 22.3 °C 12.8 °C 1024.9 hPa Calm     54.7% 0 mm 691 W/m2
08:54 22.6 °C 12.2 °C 1024.9 hPa WSW 1.1 km/h 6.4 km/h 51.6% 0 mm 664 W/m2
08:59 22.7 °C 12.5 °C 1024.9 hPa Calm   6.4 km/h 52.5% 0 mm 381 W/m2
09:04 22.9 °C 12.8 °C 1024.9 hPa Calm   6.4 km/h 53% 0 mm 763 W/m2
09:09 23.2 °C 12.8 °C 1024.9 hPa Calm     52.1% 0 mm 759 W/m2
09:14 23.5 °C 12.9 °C 1024.9 hPa Calm     51.7% 0 mm 508 W/m2
09:19 23.6 °C 13.3 °C 1024.9 hPa Calm     52.5% 0 mm 506 W/m2
09:24 23.6 °C 12.4 °C 1024.9 hPa West 0.8 km/h 6.4 km/h 49.5% 0 mm 591 W/m2
09:29 23.5 °C 12.3 °C 1024.9 hPa NE 0.5 km/h 6.4 km/h 49.4% 0 mm 777 W/m2
09:34 23.8 °C 12.6 °C 1024.6 hPa Calm   6.4 km/h 49.6% 0 mm 777 W/m2
09:39 24.2 °C 12.3 °C 1024.6 hPa West 3.9 km/h 16.1 km/h 47.6% 0 mm 545 W/m2
09:44 24.3 °C 12.1 °C 1024.6 hPa WNW 1.3 km/h 16.1 km/h 46.4% 0 mm 888 W/m2
09:49 24.6 °C 12.8 °C 1024.6 hPa WNW 1.1 km/h 16.1 km/h 47.8% 0 mm 891 W/m2
09:54 25 °C 12.7 °C 1024.6 hPa WNW 1 km/h 16.1 km/h 46.5% 0 mm 907 W/m2
09:59 25.3 °C 12.3 °C 1024.6 hPa WNW 6.1 km/h 17.7 km/h 44.2% 0 mm 907 W/m2
10:04 25.5 °C 12 °C 1024.6 hPa WNW 4.2 km/h 17.7 km/h 43% 0 mm 791 W/m2
10:09 25.6 °C 11.9 °C 1024.3 hPa West 5.1 km/h 17.7 km/h 42.5% 0 mm 798 W/m2
10:14 25.7 °C 11.8 °C 1024.3 hPa WNW 1.3 km/h 17.7 km/h 42% 0 mm 803 W/m2
10:19 25.9 °C 11.9 °C 1024.3 hPa WNW 2.1 km/h 17.7 km/h 41.6% 0 mm 821 W/m2
10:24 26.2 °C 12.4 °C 1024.3 hPa WNW 0.6 km/h 17.7 km/h 42.3% 0 mm 830 W/m2
10:29 26.5 °C 12.3 °C 1024.3 hPa WNW 1.4 km/h 17.7 km/h 41.3% 0 mm 846 W/m2
10:34 26.7 °C 12.8 °C 1024.3 hPa NNW 1.3 km/h 17.7 km/h 42.1% 0 mm 854 W/m2
10:39 26.9 °C 12.1 °C 1024.3 hPa WNW 5 km/h 16.1 km/h 39.9% 0 mm 868 W/m2
10:44 27 °C 12.2 °C 1024.3 hPa NW 5.3 km/h 16.1 km/h 39.9% 0 mm 872 W/m2
10:49 27.1 °C 12.3 °C 1024.3 hPa WNW 1.3 km/h 16.1 km/h 40% 0 mm 886 W/m2
10:54 27.3 °C 12.4 °C 1024.3 hPa WNW 4.3 km/h 16.1 km/h 39.8% 0 mm 874 W/m2
10:59 27.4 °C 12.4 °C 1023.9 hPa Calm   16.1 km/h 39.4% 0 mm 863 W/m2
11:04 27.6 °C 12.7 °C 1023.9 hPa Calm   16.1 km/h 39.8% 0 mm 884 W/m2
11:09 27.8 °C 12.4 °C 1023.9 hPa WNW 3.7 km/h 17.7 km/h 38.6% 0 mm 881 W/m2
11:14 27.9 °C 12.4 °C 1023.9 hPa WNW 3.5 km/h 17.7 km/h 38.4% 0 mm 930 W/m2
11:19 28.1 °C 10.9 °C 1023.9 hPa WNW 9.2 km/h 29 km/h 34.4% 0 mm 930 W/m2
11:24 28 °C 10.7 °C 1023.9 hPa WNW 7.6 km/h 29 km/h 34.1% 0 mm 914 W/m2
11:29 27.9 °C 10.4 °C 1023.9 hPa NW 6.6 km/h 29 km/h 33.6% 0 mm 919 W/m2
11:34 27.8 °C 10.9 °C 1023.9 hPa NW 5.1 km/h 29 km/h 34.9% 0 mm 942 W/m2
11:39 27.9 °C 11.2 °C 1023.9 hPa NW 4.7 km/h 22.5 km/h 35.3% 0 mm 953 W/m2
11:44 28.1 °C 11.2 °C 1023.9 hPa NW 2.9 km/h 22.5 km/h 35% 0 mm 949 W/m2
11:49 28.2 °C 11 °C 1023.9 hPa West 7.4 km/h 22.5 km/h 34.4% 0 mm 970 W/m2
11:54 28.3 °C 11.4 °C 1023.9 hPa West 2.1 km/h 22.5 km/h 35.2% 0 mm 972 W/m2
11:59 28.4 °C 10.7 °C 1023.9 hPa WNW 8.2 km/h 22.5 km/h 33.2% 0 mm 976 W/m2
12:00 28.4 °C 10.2 °C 1023.6 hPa West 14.5 km/h 22.5 km/h 32% 0 mm 976 W/m2
12:09 28.3 °C 9.9 °C 1023.9 hPa WNW 10.1 km/h 27.4 km/h 31.8% 0 mm 990 W/m2
12:14 28.1 °C 9.9 °C 1023.6 hPa NW 7.7 km/h 27.4 km/h 32.3% 0 mm 988 W/m2
12:19 27.9 °C 9.7 °C 1023.6 hPa NW 8.7 km/h 27.4 km/h 32% 0 mm 991 W/m2
12:24 27.7 °C 9.3 °C 1023.6 hPa WNW 9.2 km/h 27.4 km/h 31.6% 0 mm 991 W/m2
12:29 27.6 °C 8.7 °C 1023.6 hPa NW 6 km/h 27.4 km/h 30.6% 0 mm 1002 W/m2
12:34 27.5 °C 9.5 °C 1023.6 hPa WNW 9.7 km/h 27.4 km/h 32.3% 0 mm 1007 W/m2
12:39 27.6 °C 9.6 °C 1023.2 hPa WNW 8.4 km/h 22.5 km/h 32.3% 0 mm 1014 W/m2
12:44 27.7 °C 9.3 °C 1023.2 hPa WNW 10 km/h 22.5 km/h 31.6% 0 mm 1002 W/m2
12:49 27.7 °C 9.8 °C 1023.2 hPa WNW 5.3 km/h 22.5 km/h 32.7% 0 mm 1000 W/m2
12:54 27.8 °C 9.9 °C 1023.2 hPa WNW 11.7 km/h 27.4 km/h 32.6% 0 mm 1005 W/m2
12:59 27.8 °C 9.5 °C 1023.2 hPa WNW 6.4 km/h 27.4 km/h 31.8% 0 mm 1020 W/m2
13:04 27.9 °C 9.8 °C 1022.9 hPa WNW 9 km/h 27.4 km/h 32.3% 0 mm 1013 W/m2
13:09 28.1 °C 9 °C 1022.9 hPa WNW 7.6 km/h 25.7 km/h 30.3% 0 mm 1004 W/m2
13:14 28.1 °C 9.6 °C 1022.9 hPa West 6.9 km/h 25.7 km/h 31.2% 0 mm 997 W/m2
13:19 28.1 °C 9 °C 1022.9 hPa WNW 9.8 km/h 29 km/h 30.1% 0 mm 993 W/m2
13:24 28.2 °C 9.5 °C 1022.9 hPa WNW 9.2 km/h 29 km/h 31.2% 0 mm 997 W/m2
13:29 28.1 °C 8.6 °C 1022.9 hPa WNW 11.7 km/h 29 km/h 29.2% 0 mm 995 W/m2
13:34 27.9 °C 8.9 °C 1022.6 hPa WNW 7.9 km/h 29 km/h 30.1% 0 mm 997 W/m2
13:39 28.1 °C 10.1 °C 1022.6 hPa WNW 5.5 km/h 22.5 km/h 32.5% 0 mm 984 W/m2
13:44 28.2 °C 9.6 °C 1022.6 hPa WNW 8.5 km/h 22.5 km/h 31.2% 0 mm 951 W/m2
13:49 28.3 °C 9.4 °C 1022.6 hPa West 5.1 km/h 22.5 km/h 30.6% 0 mm 981 W/m2
13:54 28.4 °C 9 °C 1022.2 hPa West 5.6 km/h 22.5 km/h 29.6% 0 mm 983 W/m2
13:59 28.5 °C 9.6 °C 1022.2 hPa WNW 8 km/h 24.1 km/h 30.8% 0 mm 988 W/m2
14:04 28.3 °C 8.9 °C 1022.2 hPa WNW 2.4 km/h 24.1 km/h 29.6% 0 mm 1002 W/m2
14:09 28.4 °C 8.9 °C 1021.9 hPa WSW 5.1 km/h 14.5 km/h 29.4% 0 mm 1004 W/m2
14:14 28.6 °C 8.9 °C 1022.2 hPa WNW 10.3 km/h 33.8 km/h 29.3% 0 mm 947 W/m2
14:19 28.5 °C 8.6 °C 1022.2 hPa WNW 10.3 km/h 33.8 km/h 28.7% 0 mm 1021 W/m2
14:24 28.6 °C 8.7 °C 1022.2 hPa WNW 6.3 km/h 33.8 km/h 28.8% 0 mm 1000 W/m2
14:29 28.7 °C 9 °C 1022.2 hPa WNW 7.2 km/h 33.8 km/h 29.2% 0 mm 997 W/m2
14:34 28.6 °C 9.3 °C 1022.2 hPa WNW 4.3 km/h 33.8 km/h 29.9% 0 mm 958 W/m2
14:39 28.7 °C 9.6 °C 1021.9 hPa WNW 8.2 km/h 20.9 km/h 30.3% 0 mm 977 W/m2
14:44 28.6 °C 10 °C 1021.9 hPa WNW 5.8 km/h 20.9 km/h 31.4% 0 mm 977 W/m2
14:49 28.7 °C 9.8 °C 1021.9 hPa WNW 7.7 km/h 24.1 km/h 30.9% 0 mm 947 W/m2
14:54 28.8 °C 9.9 °C 1021.9 hPa WNW 5.6 km/h 24.1 km/h 30.9% 0 mm 856 W/m2
14:59 28.8 °C 9.4 °C 1021.9 hPa WNW 8 km/h 24.1 km/h 29.8% 0 mm 877 W/m2
15:04 28.4 °C 9.3 °C 1021.6 hPa West 8.2 km/h 24.1 km/h 30.3% 0 mm 907 W/m2
15:09 28.4 °C 9.8 °C 1021.6 hPa West 5.6 km/h 24.1 km/h 31.3% 0 mm 889 W/m2
15:14 28.6 °C 10.1 °C 1021.6 hPa WNW 6 km/h 24.1 km/h 31.5% 0 mm 877 W/m2
15:19 28.7 °C 8.9 °C 1021.6 hPa WNW 12.1 km/h 25.7 km/h 29% 0 mm 861 W/m2
15:24 28.5 °C 8.8 °C 1021.2 hPa WNW 6.9 km/h 25.7 km/h 29% 0 mm 830 W/m2
15:29 28.4 °C 9.3 °C 1021.2 hPa NW 4.3 km/h 25.7 km/h 30.1% 0 mm 816 W/m2
15:34 28.6 °C 9.9 °C 1020.9 hPa NW 4.7 km/h 25.7 km/h 31.3% 0 mm 816 W/m2
15:39 28.7 °C 9.6 °C 1020.9 hPa WNW 8.7 km/h 25.7 km/h 30.3% 0 mm 786 W/m2
15:44 28.6 °C 9.3 °C 1020.9 hPa WNW 12.4 km/h 25.7 km/h 29.9% 0 mm 777 W/m2
15:49 28.5 °C 9.3 °C 1020.9 hPa WNW 11.3 km/h 25.7 km/h 30.1% 0 mm 765 W/m2
15:54 28.3 °C 8.9 °C 1020.9 hPa WNW 10.1 km/h 25.7 km/h 29.6% 0 mm 738 W/m2
15:59 28.3 °C 9.4 °C 1020.9 hPa WNW 6.1 km/h 25.7 km/h 30.8% 0 mm 738 W/m2
16:00 28.3 °C 9.1 °C 1020.5 hPa WNW 3.2 km/h 25.7 km/h 30% 0 mm 738 W/m2
16:09 28.3 °C 9.9 °C 1020.5 hPa WNW 5 km/h 17.7 km/h 31.7% 0 mm 693 W/m2
16:14 28.2 °C 10.1 °C 1020.5 hPa West 2.9 km/h 17.7 km/h 32.3% 0 mm 83 W/m2
16:19 28.2 °C 9.7 °C 1020.5 hPa WNW 10.6 km/h 27.4 km/h 31.5% 0 mm 79 W/m2
16:24 28.2 °C 9.5 °C 1020.5 hPa WNW 8.9 km/h 27.4 km/h 31% 0 mm 90 W/m2
16:29 28.2 °C 9.3 °C 1020.5 hPa WNW 7.7 km/h 27.4 km/h 30.7% 0 mm 86 W/m2
16:34 28.1 °C 9.7 °C 1020.5 hPa West 4.5 km/h 27.4 km/h 31.7% 0 mm 76 W/m2
16:39 28.1 °C 9.8 °C 1020.5 hPa NW 8.2 km/h 19.3 km/h 31.9% 0 mm 74 W/m2
16:44 28.1 °C 9.6 °C 1020.2 hPa WNW 5.5 km/h 19.3 km/h 31.4% 0 mm 74 W/m2
16:45 28.1 °C 9.3 °C 1020.2 hPa WNW 5.8 km/h 19.3 km/h 31% 0 mm 72 W/m2
17:00 28 °C 9.8 °C 1020.2 hPa WNW 6.4 km/h 33.8 km/h 32% 0 mm 71 W/m2
17:30 27.8 °C 10.1 °C 1019.9 hPa WNW 6.4 km/h 24.1 km/h 33% 0 mm 64 W/m2
18:00 27.6 °C 9.9 °C 1019.9 hPa WNW 4.8 km/h 24.1 km/h 33% 0 mm 77 W/m2
18:30 27.4 °C 10.6 °C 1020.2 hPa WNW 3.2 km/h 16.1 km/h 35% 0 mm 79 W/m2
19:00 27.1 °C 9.9 °C 1020.5 hPa WNW 3.2 km/h 17.7 km/h 34% 0 mm 46 W/m2
19:30 26.3 °C 9.2 °C 1020.2 hPa WNW 1.6 km/h 11.3 km/h 34% 0 mm 35 W/m2
20:04 25.4 °C 9.6 °C 1020.5 hPa Calm   1.6 km/h 37% 0 mm 0 W/m2
20:09 25.2 °C 9.7 °C 1020.5 hPa Calm   1.6 km/h 37.6% 0 mm 0 W/m2
20:14 25 °C 9.7 °C 1020.5 hPa Calm   1.6 km/h 38% 0 mm 0 W/m2
20:19 24.7 °C 9.8 °C 1020.2 hPa Calm   1.6 km/h 38.9% 0 mm 0 W/m2
20:24 24.4 °C 9.9 °C 1020.5 hPa Calm   1.6 km/h 39.9% 0 mm 0 W/m2
20:29 24.2 °C 9.8 °C 1020.5 hPa Calm   1.6 km/h 40% 0 mm 0 W/m2
20:34 24 °C 9.7 °C 1020.5 hPa Calm   1.6 km/h 40.3% 0 mm 0 W/m2
20:39 23.8 °C 9.8 °C 1020.5 hPa Calm     41.1% 0 mm 0 W/m2
20:44 23.6 °C 9.9 °C 1020.5 hPa Calm     42% 0 mm 0 W/m2
20:49 23.4 °C 10.1 °C 1020.5 hPa Calm     42.9% 0 mm 0 W/m2
20:54 23.2 °C 10.1 °C 1020.5 hPa Calm     43.4% 0 mm 0 W/m2
20:59 23 °C 10.2 °C 1020.9 hPa Calm     44.3% 0 mm 0 W/m2
21:04 22.8 °C 10.3 °C 1020.9 hPa Calm     45% 0 mm 0 W/m2
21:09 22.6 °C 10.4 °C 1021.2 hPa Calm     45.9% 0 mm 0 W/m2
21:14 22.4 °C 10.7 °C 1021.2 hPa Calm     47.3% 0 mm 0 W/m2
21:19 22.2 °C 10.7 °C 1021.2 hPa Calm     48% 0 mm 0 W/m2
21:24 22 °C 10.4 °C 1021.2 hPa Calm     48% 0 mm 0 W/m2
21:29 21.8 °C 10.3 °C 1021.2 hPa Calm     48.1% 0 mm 0 W/m2
21:32 21.7 °C 10.2 °C 1021.2 hPa Calm     48% 0 mm 0 W/m2
22:00 20.9 °C 10.2 °C 1021.6 hPa Calm     50% 0 mm 0 W/m2
22:30 20.7 °C 9.6 °C 1021.6 hPa Calm   3.2 km/h 49% 0 mm 0 W/m2
23:00 20 °C 10.4 °C 1021.6 hPa Calm   1.6 km/h 54% 0 mm 0 W/m2
23:30 19.6 °C 9.7 °C 1021.6 hPa Calm   3.2 km/h 53% 0 mm 0 W/m2
Hartford County Weather
Compliments of Weather Underground - 2 mb